sensor_id;sensor_type;location;lat;lon;timestamp;pressure;altitude;pressure_sealevel;temperature;humidity
10476;BME280;26166;48.264;11.436;2023-05-03T00:00:04;96885.59;;;12.70;66.49
10476;BME280;26166;48.264;11.436;2023-05-03T00:03:07;96883.63;;;12.72;66.43
10476;BME280;26166;48.264;11.436;2023-05-03T00:09:10;96880.31;;;12.70;66.18
10476;BME280;26166;48.264;11.436;2023-05-03T00:12:11;96885.78;;;12.68;66.13
10476;BME280;26166;48.264;11.436;2023-05-03T00:15:11;96890.53;;;12.65;66.32
10476;BME280;26166;48.264;11.436;2023-05-03T00:18:11;96883.63;;;12.63;66.09
10476;BME280;26166;48.264;11.436;2023-05-03T00:21:11;96878.34;;;12.63;66.06
10476;BME280;26166;48.264;11.436;2023-05-03T00:24:11;96887.09;;;12.64;66.20
10476;BME280;26166;48.264;11.436;2023-05-03T00:27:12;96876.38;;;12.66;66.30
10476;BME280;26166;48.264;11.436;2023-05-03T00:30:12;96878.84;;;12.67;66.30
10476;BME280;26166;48.264;11.436;2023-05-03T00:33:12;96874.41;;;12.68;65.76
10476;BME280;26166;48.264;11.436;2023-05-03T00:36:13;96870.94;;;12.67;65.72
10476;BME280;26166;48.264;11.436;2023-05-03T00:39:13;96877.84;;;12.60;65.71
10476;BME280;26166;48.264;11.436;2023-05-03T00:42:13;96864.69;;;12.60;65.71
10476;BME280;26166;48.264;11.436;2023-05-03T00:45:14;96871.59;;;12.61;65.53
10476;BME280;26166;48.264;11.436;2023-05-03T00:48:14;96866.31;;;12.61;65.38
10476;BME280;26166;48.264;11.436;2023-05-03T00:51:16;96866.31;;;12.61;65.20
10476;BME280;26166;48.264;11.436;2023-05-03T00:54:18;96858.41;;;12.61;64.96
10476;BME280;26166;48.264;11.436;2023-05-03T00:57:18;96862.03;;;12.60;65.16
10476;BME280;26166;48.264;11.436;2023-05-03T01:00:20;96862.22;;;12.58;65.23
10476;BME280;26166;48.264;11.436;2023-05-03T01:03:21;96862.03;;;12.60;65.31
10476;BME280;26166;48.264;11.436;2023-05-03T01:06:30;96863.03;;;12.59;65.16
10476;BME280;26166;48.264;11.436;2023-05-03T01:09:34;96856.13;;;12.58;65.10
10476;BME280;26166;48.264;11.436;2023-05-03T01:15:51;96862.34;;;12.57;65.30
10476;BME280;26166;48.264;11.436;2023-05-03T01:18:53;96857.78;;;12.59;65.08
10476;BME280;26166;48.264;11.436;2023-05-03T01:21:56;96856.44;;;12.55;65.14
10476;BME280;26166;48.264;11.436;2023-05-03T01:25:00;96850.84;;;12.58;64.53
10476;BME280;26166;48.264;11.436;2023-05-03T01:28:02;96847.53;;;12.56;64.42
10476;BME280;26166;48.264;11.436;2023-05-03T01:31:02;96855.44;;;12.56;64.70
10476;BME280;26166;48.264;11.436;2023-05-03T01:37:22;96854.31;;;12.50;64.88
10476;BME280;26166;48.264;11.436;2023-05-03T01:40:22;96858.44;;;12.53;64.55
10476;BME280;26166;48.264;11.436;2023-05-03T01:43:24;96861.72;;;12.55;64.22
10476;BME280;26166;48.264;11.436;2023-05-03T01:46:24;96864.66;;;12.52;63.94
10476;BME280;26166;48.264;11.436;2023-05-03T01:49:25;96861.53;;;12.48;63.88
10476;BME280;26166;48.264;11.436;2023-05-03T01:52:25;96865.84;;;12.49;64.45
10476;BME280;26166;48.264;11.436;2023-05-03T01:55:25;96860.72;;;12.48;64.09
10476;BME280;26166;48.264;11.436;2023-05-03T01:58:26;96862.38;;;12.49;63.84
10476;BME280;26166;48.264;11.436;2023-05-03T02:01:26;96864.03;;;12.50;63.45
10476;BME280;26166;48.264;11.436;2023-05-03T02:04:26;96871.09;;;12.49;63.78
10476;BME280;26166;48.264;11.436;2023-05-03T02:07:27;96867.97;;;12.46;64.43
10476;BME280;26166;48.264;11.436;2023-05-03T02:10:27;96875.19;;;12.44;64.36
10476;BME280;26166;48.264;11.436;2023-05-03T02:13:28;96876.88;;;12.45;64.35
10476;BME280;26166;48.264;11.436;2023-05-03T02:16:28;96878.50;;;12.46;64.03
10476;BME280;26166;48.264;11.436;2023-05-03T02:19:28;96879.50;;;12.45;64.33
10476;BME280;26166;48.264;11.436;2023-05-03T02:22:28;96882.13;;;12.45;64.15
10476;BME280;26166;48.264;11.436;2023-05-03T02:25:29;96883.94;;;12.44;63.98
10476;BME280;26166;48.264;11.436;2023-05-03T02:28:29;96882.13;;;12.45;64.13
10476;BME280;26166;48.264;11.436;2023-05-03T02:31:29;96882.78;;;12.38;64.24
10476;BME280;26166;48.264;11.436;2023-05-03T02:34:30;96882.28;;;12.43;63.83
10476;BME280;26166;48.264;11.436;2023-05-03T02:37:30;96883.44;;;12.41;64.13
10476;BME280;26166;48.264;11.436;2023-05-03T02:40:31;96879.50;;;12.45;63.61
10476;BME280;26166;48.264;11.436;2023-05-03T02:43:31;96878.81;;;12.43;64.08
10476;BME280;26166;48.264;11.436;2023-05-03T02:46:31;96875.88;;;12.46;63.89
10476;BME280;26166;48.264;11.436;2023-05-03T02:49:31;96879.97;;;12.48;63.62
10476;BME280;26166;48.264;11.436;2023-05-03T02:52:32;96876.38;;;12.49;63.52
10476;BME280;26166;48.264;11.436;2023-05-03T02:55:32;96878.50;;;12.46;63.83
10476;BME280;26166;48.264;11.436;2023-05-03T02:58:32;96880.97;;;12.47;63.77
10476;BME280;26166;48.264;11.436;2023-05-03T03:01:32;96877.19;;;12.42;63.84
10476;BME280;26166;48.264;11.436;2023-05-03T03:04:33;96869.94;;;12.44;63.95
10476;BME280;26166;48.264;11.436;2023-05-03T03:07:33;96869.59;;;12.47;63.75
10476;BME280;26166;48.264;11.436;2023-05-03T03:10:33;96874.06;;;12.46;63.53
10476;BME280;26166;48.264;11.436;2023-05-03T03:13:33;96871.25;;;12.48;63.39
10476;BME280;26166;48.264;11.436;2023-05-03T03:16:38;96870.41;;;12.23;63.55
10476;BME280;26166;48.264;11.436;2023-05-03T03:19:38;96872.22;;;12.22;63.97
10476;BME280;26166;48.264;11.436;2023-05-03T03:22:38;96872.88;;;12.24;63.99
10476;BME280;26166;48.264;11.436;2023-05-03T03:25:40;96883.75;;;12.29;63.88
10476;BME280;26166;48.264;11.436;2023-05-03T03:28:40;96888.53;;;12.34;63.87
10476;BME280;26166;48.264;11.436;2023-05-03T03:31:40;96878.16;;;12.32;63.67
10476;BME280;26166;48.264;11.436;2023-05-03T03:34:41;96876.19;;;12.34;63.99
10476;BME280;26166;48.264;11.436;2023-05-03T03:37:41;96873.72;;;12.41;63.57
10476;BME280;26166;48.264;11.436;2023-05-03T03:40:41;96870.78;;;12.44;63.28
10476;BME280;26166;48.264;11.436;2023-05-03T03:43:41;96865.50;;;12.44;63.17
10476;BME280;26166;48.264;11.436;2023-05-03T03:46:42;96876.53;;;12.48;62.80
10476;BME280;26166;48.264;11.436;2023-05-03T03:49:42;96877.50;;;12.47;62.81
10476;BME280;26166;48.264;11.436;2023-05-03T03:52:43;96879.50;;;12.45;62.83
10476;BME280;26166;48.264;11.436;2023-05-03T03:55:43;96884.59;;;12.46;62.95
10476;BME280;26166;48.264;11.436;2023-05-03T03:58:43;96877.50;;;12.47;62.77
10476;BME280;26166;48.264;11.436;2023-05-03T04:01:43;96889.69;;;12.48;62.92
10476;BME280;26166;48.264;11.436;2023-05-03T04:04:43;96887.06;;;12.48;62.88
10476;BME280;26166;48.264;11.436;2023-05-03T04:07:44;96891.50;;;12.47;62.78
10476;BME280;26166;48.264;11.436;2023-05-03T04:10:44;96887.88;;;12.48;62.93
10476;BME280;26166;48.264;11.436;2023-05-03T04:13:45;96885.94;;;12.50;62.93
10476;BME280;26166;48.264;11.436;2023-05-03T04:16:45;96895.47;;;12.51;62.85
10476;BME280;26166;48.264;11.436;2023-05-03T04:19:45;96895.31;;;12.53;62.86
10476;BME280;26166;48.264;11.436;2023-05-03T04:22:46;96892.84;;;12.51;62.59
10476;BME280;26166;48.264;11.436;2023-05-03T04:25:46;96904.19;;;12.52;62.76
10476;BME280;26166;48.264;11.436;2023-05-03T04:28:47;96898.28;;;12.50;63.04
10476;BME280;26166;48.264;11.436;2023-05-03T04:31:48;96899.28;;;12.49;63.03
10476;BME280;26166;48.264;11.436;2023-05-03T04:34:49;96903.69;;;12.48;63.23
10476;BME280;26166;48.264;11.436;2023-05-03T04:37:51;96913.75;;;12.45;62.91
10476;BME280;26166;48.264;11.436;2023-05-03T04:40:51;96911.44;;;12.42;62.98
10476;BME280;26166;48.264;11.436;2023-05-03T04:43:52;96912.44;;;12.41;63.46
10476;BME280;26166;48.264;11.436;2023-05-03T04:46:52;96919.34;;;12.42;63.65
10476;BME280;26166;48.264;11.436;2023-05-03T04:49:52;96926.59;;;12.40;63.59
10476;BME280;26166;48.264;11.436;2023-05-03T04:52:52;96922.94;;;12.32;63.97
10476;BME280;26166;48.264;11.436;2023-05-03T04:55:52;96920.63;;;12.29;64.03
10476;BME280;26166;48.264;11.436;2023-05-03T04:58:53;96917.34;;;12.27;64.10
10476;BME280;26166;48.264;11.436;2023-05-03T05:01:53;96917.34;;;12.27;63.97
10476;BME280;26166;48.264;11.436;2023-05-03T05:04:53;96928.53;;;12.29;64.11
10476;BME280;26166;48.264;11.436;2023-05-03T05:07:53;96927.53;;;12.30;63.89
10476;BME280;26166;48.264;11.436;2023-05-03T05:10:54;96929.53;;;12.28;64.02
10476;BME280;26166;48.264;11.436;2023-05-03T05:13:54;96932.16;;;12.28;64.19
10476;BME280;26166;48.264;11.436;2023-05-03T05:16:55;96940.69;;;12.30;64.20
10476;BME280;26166;48.264;11.436;2023-05-03T05:19:55;96940.06;;;12.28;64.34
10476;BME280;26166;48.264;11.436;2023-05-03T05:22:56;96944.50;;;12.28;64.41
10476;BME280;26166;48.264;11.436;2023-05-03T05:25:56;96949.59;;;12.29;64.50
10476;BME280;26166;48.264;11.436;2023-05-03T05:28:59;96946.97;;;12.29;64.70
10476;BME280;26166;48.264;11.436;2023-05-03T05:31:59;96946.16;;;12.29;64.78
10476;BME280;26166;48.264;11.436;2023-05-03T05:35:02;96949.59;;;12.29;64.68
10476;BME280;26166;48.264;11.436;2023-05-03T05:38:02;96948.94;;;12.27;64.82
10476;BME280;26166;48.264;11.436;2023-05-03T05:41:02;96955.88;;;12.28;64.79
10476;BME280;26166;48.264;11.436;2023-05-03T05:44:03;96954.34;;;12.26;65.15
10476;BME280;26166;48.264;11.436;2023-05-03T05:47:03;96957.84;;;12.26;65.26
10476;BME280;26166;48.264;11.436;2023-05-03T05:50:03;96958.47;;;12.20;65.70
10476;BME280;26166;48.264;11.436;2023-05-03T05:53:04;96962.84;;;12.03;66.38
10476;BME280;26166;48.264;11.436;2023-05-03T05:56:04;96967.16;;;12.04;66.36
10476;BME280;26166;48.264;11.436;2023-05-03T05:59:05;96960.38;;;12.02;66.58
10476;BME280;26166;48.264;11.436;2023-05-03T06:02:07;96964.00;;;12.01;66.79
10476;BME280;26166;48.264;11.436;2023-05-03T06:05:12;96970.91;;;12.02;66.79
10476;BME280;26166;48.264;11.436;2023-05-03T06:08:12;96966.28;;;12.04;67.01
10476;BME280;26166;48.264;11.436;2023-05-03T06:11:12;96967.97;;;12.05;67.14
10476;BME280;26166;48.264;11.436;2023-05-03T06:14:13;96965.34;;;12.05;67.00
10476;BME280;26166;48.264;11.436;2023-05-03T06:17:14;96969.78;;;12.04;67.15
10476;BME280;26166;48.264;11.436;2023-05-03T06:20:14;96963.66;;;12.04;67.22
10476;BME280;26166;48.264;11.436;2023-05-03T06:23:16;96972.03;;;11.99;67.32
10476;BME280;26166;48.264;11.436;2023-05-03T06:26:16;96966.28;;;11.96;67.47
10476;BME280;26166;48.264;11.436;2023-05-03T06:29:16;96978.75;;;11.94;67.78
10476;BME280;26166;48.264;11.436;2023-05-03T06:32:17;96973.50;;;11.94;67.48
10476;BME280;26166;48.264;11.436;2023-05-03T06:35:18;96975.13;;;11.95;67.84
10476;BME280;26166;48.264;11.436;2023-05-03T06:38:18;96980.75;;;11.92;67.80
10476;BME280;26166;48.264;11.436;2023-05-03T06:41:19;96983.38;;;11.92;68.11
10476;BME280;26166;48.264;11.436;2023-05-03T06:44:19;96976.44;;;11.91;68.19
10476;BME280;26166;48.264;11.436;2023-05-03T06:47:19;96975.31;;;11.93;68.22
10476;BME280;26166;48.264;11.436;2023-05-03T06:50:20;96980.75;;;11.92;68.54
10476;BME280;26166;48.264;11.436;2023-05-03T06:53:21;96977.13;;;11.93;68.27
10476;BME280;26166;48.264;11.436;2023-05-03T06:56:21;96979.25;;;11.89;68.57
10476;BME280;26166;48.264;11.436;2023-05-03T06:59:22;96984.66;;;11.88;68.99
10476;BME280;26166;48.264;11.436;2023-05-03T07:02:22;96982.84;;;11.88;69.01
10476;BME280;26166;48.264;11.436;2023-05-03T07:05:22;96983.03;;;11.86;68.80
10476;BME280;26166;48.264;11.436;2023-05-03T07:08:22;96979.06;;;11.82;68.98
10476;BME280;26166;48.264;11.436;2023-05-03T07:11:23;96979.72;;;11.84;68.98
10476;BME280;26166;48.264;11.436;2023-05-03T07:14:23;96971.50;;;11.88;68.88
10476;BME280;26166;48.264;11.436;2023-05-03T07:17:23;96967.22;;;11.86;69.14
10476;BME280;26166;48.264;11.436;2023-05-03T07:20:23;96974.66;;;11.91;68.95
10476;BME280;26166;48.264;11.436;2023-05-03T07:23:24;96972.84;;;11.92;69.18
10476;BME280;26166;48.264;11.436;2023-05-03T07:26:24;96971.03;;;11.92;69.27
10476;BME280;26166;48.264;11.436;2023-05-03T07:29:25;96977.13;;;11.93;68.95
10476;BME280;26166;48.264;11.436;2023-05-03T07:32:26;96974.31;;;11.94;69.02
10476;BME280;26166;48.264;11.436;2023-05-03T07:35:26;96967.25;;;11.95;69.30
10476;BME280;26166;48.264;11.436;2023-05-03T07:38:27;96971.56;;;11.96;68.98
10476;BME280;26166;48.264;11.436;2023-05-03T07:41:27;96964.31;;;11.98;69.35
10476;BME280;26166;48.264;11.436;2023-05-03T07:44:27;96960.53;;;12.00;69.42
10476;BME280;26166;48.264;11.436;2023-05-03T07:47:27;96965.63;;;12.02;68.96
10476;BME280;26166;48.264;11.436;2023-05-03T07:50:28;96965.94;;;11.99;69.35
10476;BME280;26166;48.264;11.436;2023-05-03T07:53:28;96964.00;;;12.01;69.35
10476;BME280;26166;48.264;11.436;2023-05-03T07:56:28;96968.94;;;12.04;68.99
10476;BME280;26166;48.264;11.436;2023-05-03T07:59:28;96963.00;;;12.02;69.66
10476;BME280;26166;48.264;11.436;2023-05-03T08:02:29;96959.25;;;12.04;69.38
10476;BME280;26166;48.264;11.436;2023-05-03T08:05:30;96960.72;;;12.07;69.26
10476;BME280;26166;48.264;11.436;2023-05-03T08:08:30;96961.88;;;12.04;69.61
10476;BME280;26166;48.264;11.436;2023-05-03T08:11:31;96962.34;;;12.08;69.37
10476;BME280;26166;48.264;11.436;2023-05-03T08:14:31;96957.56;;;12.03;70.08
10476;BME280;26166;48.264;11.436;2023-05-03T08:17:40;96953.63;;;12.07;69.66
10476;BME280;26166;48.264;11.436;2023-05-03T08:20:40;96954.81;;;12.05;69.75
10476;BME280;26166;48.264;11.436;2023-05-03T08:23:41;96952.16;;;12.05;69.94
10476;BME280;26166;48.264;11.436;2023-05-03T08:26:42;96950.50;;;12.04;69.97
10476;BME280;26166;48.264;11.436;2023-05-03T08:29:43;96951.47;;;12.03;70.11
10476;BME280;26166;48.264;11.436;2023-05-03T08:32:44;96951.19;;;12.06;70.13
10476;BME280;26166;48.264;11.436;2023-05-03T08:35:44;96960.72;;;12.07;70.09
10476;BME280;26166;48.264;11.436;2023-05-03T08:38:44;96964.84;;;12.09;70.16
10476;BME280;26166;48.264;11.436;2023-05-03T08:41:45;96956.13;;;12.09;69.89
10476;BME280;26166;48.264;11.436;2023-05-03T08:44:46;96960.25;;;12.11;69.93
10476;BME280;26166;48.264;11.436;2023-05-03T08:47:51;96959.41;;;12.11;70.14
10476;BME280;26166;48.264;11.436;2023-05-03T08:50:52;96955.28;;;12.08;70.16
10476;BME280;26166;48.264;11.436;2023-05-03T08:53:53;96955.78;;;12.12;69.89
10476;BME280;26166;48.264;11.436;2023-05-03T08:56:53;96953.97;;;12.12;69.70
10476;BME280;26166;48.264;11.436;2023-05-03T08:59:53;96953.03;;;12.14;69.79
10476;BME280;26166;48.264;11.436;2023-05-03T09:02:57;96965.03;;;12.16;70.00
10476;BME280;26166;48.264;11.436;2023-05-03T09:05:57;96969.47;;;12.16;69.96
10476;BME280;26166;48.264;11.436;2023-05-03T09:09:04;96969.66;;;12.14;70.23
10476;BME280;26166;48.264;11.436;2023-05-03T09:12:06;96973.75;;;12.17;69.90
10476;BME280;26166;48.264;11.436;2023-05-03T09:15:06;96970.16;;;12.18;70.06
10476;BME280;26166;48.264;11.436;2023-05-03T09:18:07;96976.25;;;12.18;69.99
10476;BME280;26166;48.264;11.436;2023-05-03T09:21:08;96984.16;;;12.18;70.00
10476;BME280;26166;48.264;11.436;2023-05-03T09:24:20;96983.00;;;12.21;70.17
10476;BME280;26166;48.264;11.436;2023-05-03T09:27:21;96983.81;;;12.21;70.03
10476;BME280;26166;48.264;11.436;2023-05-03T09:30:22;96985.50;;;12.22;69.89
10476;BME280;26166;48.264;11.436;2023-05-03T09:33:28;96980.88;;;12.24;70.12
10476;BME280;26166;48.264;11.436;2023-05-03T09:36:28;96979.75;;;12.27;70.10
10476;BME280;26166;48.264;11.436;2023-05-03T09:39:44;96970.34;;;12.24;69.87
10476;BME280;26166;48.264;11.436;2023-05-03T09:46:10;96961.91;;;12.21;70.28
10476;BME280;26166;48.264;11.436;2023-05-03T09:49:10;96963.41;;;12.23;70.19
10476;BME280;26166;48.264;11.436;2023-05-03T09:52:11;96964.25;;;12.24;70.15
10476;BME280;26166;48.264;11.436;2023-05-03T09:55:11;96959.78;;;12.24;70.15
10476;BME280;26166;48.264;11.436;2023-05-03T09:58:11;96958.66;;;12.27;70.03
10476;BME280;26166;48.264;11.436;2023-05-03T10:01:13;96971.66;;;12.28;70.27
10476;BME280;26166;48.264;11.436;2023-05-03T10:04:14;96968.03;;;12.29;70.19
10476;BME280;26166;48.264;11.436;2023-05-03T10:07:16;96964.41;;;12.30;70.27
10476;BME280;26166;48.264;11.436;2023-05-03T10:10:17;96960.00;;;12.31;70.23
10476;BME280;26166;48.264;11.436;2023-05-03T10:13:17;96960.81;;;12.31;70.32
10476;BME280;26166;48.264;11.436;2023-05-03T10:16:31;96960.81;;;12.31;70.42
10476;BME280;26166;48.264;11.436;2023-05-03T10:19:40;96963.59;;;12.30;70.62
10476;BME280;26166;48.264;11.436;2023-05-03T10:29:23;96962.16;;;12.35;70.62
10476;BME280;26166;48.264;11.436;2023-05-03T10:32:27;96956.88;;;12.35;70.77
10476;BME280;26166;48.264;11.436;2023-05-03T10:35:28;96956.53;;;12.38;70.50
10476;BME280;26166;48.264;11.436;2023-05-03T10:38:28;96962.50;;;12.41;70.46
10476;BME280;26166;48.264;11.436;2023-05-03T10:41:28;96953.28;;;12.45;70.16
10476;BME280;26166;48.264;11.436;2023-05-03T10:44:38;96953.94;;;12.47;70.08
10476;BME280;26166;48.264;11.436;2023-05-03T10:47:39;96958.06;;;12.49;70.19
10476;BME280;26166;48.264;11.436;2023-05-03T10:50:40;96951.97;;;12.49;69.92
10476;BME280;26166;48.264;11.436;2023-05-03T10:53:40;96958.72;;;12.51;70.00
10476;BME280;26166;48.264;11.436;2023-05-03T10:56:49;96950.66;;;12.53;70.06
10476;BME280;26166;48.264;11.436;2023-05-03T10:59:49;96951.31;;;12.55;69.75
10476;BME280;26166;48.264;11.436;2023-05-03T11:06:25;96954.94;;;12.54;70.12
10476;BME280;26166;48.264;11.436;2023-05-03T11:09:32;96951.50;;;12.53;70.30
10476;BME280;26166;48.264;11.436;2023-05-03T11:12:33;96949.66;;;12.54;69.88
10476;BME280;26166;48.264;11.436;2023-05-03T11:15:33;96952.13;;;12.55;69.88
10476;BME280;26166;48.264;11.436;2023-05-03T11:18:33;96942.41;;;12.56;69.59
10476;BME280;26166;48.264;11.436;2023-05-03T11:21:34;96944.06;;;12.57;69.85
10476;BME280;26166;48.264;11.436;2023-05-03T11:24:34;96944.56;;;12.60;69.31
10476;BME280;26166;48.264;11.436;2023-05-03T11:27:34;96938.47;;;12.60;69.36
10476;BME280;26166;48.264;11.436;2023-05-03T11:30:35;96927.09;;;12.59;69.22
10476;BME280;26166;48.264;11.436;2023-05-03T11:33:36;96923.66;;;12.59;69.44
10476;BME280;26166;48.264;11.436;2023-05-03T11:36:37;96926.13;;;12.60;69.56
10476;BME280;26166;48.264;11.436;2023-05-03T11:39:38;96916.38;;;12.61;69.23
10476;BME280;26166;48.264;11.436;2023-05-03T11:45:53;96916.38;;;12.61;69.31
10476;BME280;26166;48.264;11.436;2023-05-03T11:48:55;96913.75;;;12.61;69.40
10476;BME280;26166;48.264;11.436;2023-05-03T11:51:55;96911.81;;;12.63;69.33
10476;BME280;26166;48.264;11.436;2023-05-03T11:54:55;96908.50;;;12.69;69.70
10476;BME280;26166;48.264;11.436;2023-05-03T11:57:56;96900.78;;;12.76;69.05
10476;BME280;26166;48.264;11.436;2023-05-03T12:00:56;96902.56;;;12.83;69.06
10476;BME280;26166;48.264;11.436;2023-05-03T12:03:57;96896.66;;;12.90;69.06
10476;BME280;26166;48.264;11.436;2023-05-03T12:06:58;96902.25;;;12.95;68.47
10476;BME280;26166;48.264;11.436;2023-05-03T12:09:58;96894.00;;;12.98;68.52
10476;BME280;26166;48.264;11.436;2023-05-03T12:13:00;96894.66;;;13.00;68.37
10476;BME280;26166;48.264;11.436;2023-05-03T12:16:01;96894.34;;;13.03;68.01
10476;BME280;26166;48.264;11.436;2023-05-03T12:19:02;96893.34;;;13.04;68.00
10476;BME280;26166;48.264;11.436;2023-05-03T12:22:02;96883.47;;;13.06;67.85
10476;BME280;26166;48.264;11.436;2023-05-03T12:25:03;96887.75;;;13.07;67.85
10476;BME280;26166;48.264;11.436;2023-05-03T12:28:04;96883.47;;;13.06;67.77
10476;BME280;26166;48.264;11.436;2023-05-03T12:31:04;96882.09;;;13.10;67.66
10476;BME280;26166;48.264;11.436;2023-05-03T12:34:05;96880.16;;;13.12;67.43
10476;BME280;26166;48.264;11.436;2023-05-03T12:37:05;96869.59;;;13.12;67.36
10476;BME280;26166;48.264;11.436;2023-05-03T12:40:05;96866.97;;;13.12;67.38
10476;BME280;26166;48.264;11.436;2023-05-03T12:43:05;96866.78;;;13.13;66.86
10476;BME280;26166;48.264;11.436;2023-05-03T12:46:06;96862.31;;;13.14;67.00
10476;BME280;26166;48.264;11.436;2023-05-03T12:49:06;96858.72;;;13.15;66.85
10476;BME280;26166;48.264;11.436;2023-05-03T12:52:06;96853.44;;;13.15;66.80
10476;BME280;26166;48.264;11.436;2023-05-03T12:55:06;96851.44;;;13.17;66.78
10476;BME280;26166;48.264;11.436;2023-05-03T12:58:07;96856.53;;;13.19;66.73
10476;BME280;26166;48.264;11.436;2023-05-03T13:01:07;96849.97;;;13.23;66.41
10476;BME280;26166;48.264;11.436;2023-05-03T13:04:07;96843.88;;;13.22;66.46
10476;BME280;26166;48.264;11.436;2023-05-03T13:07:08;96846.50;;;13.22;66.31
10476;BME280;26166;48.264;11.436;2023-05-03T13:10:09;96839.56;;;13.21;66.20
10476;BME280;26166;48.264;11.436;2023-05-03T13:13:10;96847.19;;;13.24;65.96
10476;BME280;26166;48.264;11.436;2023-05-03T13:16:10;96828.72;;;13.24;65.84
10476;BME280;26166;48.264;11.436;2023-05-03T13:19:11;96830.34;;;13.25;65.78
10476;BME280;26166;48.264;11.436;2023-05-03T13:22:11;96831.34;;;13.24;65.59
10476;BME280;26166;48.264;11.436;2023-05-03T13:25:12;96823.25;;;13.26;65.63
10476;BME280;26166;48.264;11.436;2023-05-03T13:28:12;96814.53;;;13.25;65.20
10476;BME280;26166;48.264;11.436;2023-05-03T13:31:12;96808.25;;;13.26;65.29
10476;BME280;26166;48.264;11.436;2023-05-03T13:34:13;96811.88;;;13.25;65.17
10476;BME280;26166;48.264;11.436;2023-05-03T13:37:13;96806.63;;;13.25;64.85
10476;BME280;26166;48.264;11.436;2023-05-03T13:40:17;96803.78;;;13.27;64.99
10476;BME280;26166;48.264;11.436;2023-05-03T13:43:17;96802.97;;;13.26;65.15
10476;BME280;26166;48.264;11.436;2023-05-03T13:46:18;96801.97;;;13.27;64.69
10476;BME280;26166;48.264;11.436;2023-05-03T13:49:18;96795.72;;;13.28;64.70
10476;BME280;26166;48.264;11.436;2023-05-03T13:52:19;96789.59;;;13.28;64.25
10476;BME280;26166;48.264;11.436;2023-05-03T13:55:19;96791.91;;;13.31;64.38
10476;BME280;26166;48.264;11.436;2023-05-03T13:58:19;96794.22;;;13.34;63.15
10476;BME280;26166;48.264;11.436;2023-05-03T14:01:19;96797.84;;;13.33;63.80
10476;BME280;26166;48.264;11.436;2023-05-03T14:04:20;96790.47;;;13.28;63.36
10476;BME280;26166;48.264;11.436;2023-05-03T14:07:20;96792.41;;;13.26;63.83
10476;BME280;26166;48.264;11.436;2023-05-03T14:10:20;96786.00;;;13.29;63.86
10476;BME280;26166;48.264;11.436;2023-05-03T14:13:20;96787.16;;;13.26;63.95
10476;BME280;26166;48.264;11.436;2023-05-03T14:16:21;96781.88;;;13.26;64.19
10476;BME280;26166;48.264;11.436;2023-05-03T14:19:21;96781.88;;;13.26;64.34
10476;BME280;26166;48.264;11.436;2023-05-03T14:22:22;96778.59;;;13.24;64.18
10476;BME280;26166;48.264;11.436;2023-05-03T14:25:22;96776.25;;;13.29;64.13
10476;BME280;26166;48.264;11.436;2023-05-03T14:28:22;96779.91;;;13.28;64.60
10476;BME280;26166;48.264;11.436;2023-05-03T14:31:22;96776.59;;;13.26;64.33
10476;BME280;26166;48.264;11.436;2023-05-03T14:34:22;96767.88;;;13.26;64.50
10476;BME280;26166;48.264;11.436;2023-05-03T14:37:23;96765.41;;;13.24;64.41
10476;BME280;26166;48.264;11.436;2023-05-03T14:40:23;96762.25;;;13.21;64.25
10476;BME280;26166;48.264;11.436;2023-05-03T14:43:23;96762.09;;;13.22;64.34
10476;BME280;26166;48.264;11.436;2023-05-03T14:46:23;96763.88;;;13.22;64.26
10476;BME280;26166;48.264;11.436;2023-05-03T14:49:24;96759.13;;;13.25;63.60
10476;BME280;26166;48.264;11.436;2023-05-03T14:52:24;96756.66;;;13.24;63.82
10476;BME280;26166;48.264;11.436;2023-05-03T14:55:24;96749.56;;;13.24;63.22
10476;BME280;26166;48.264;11.436;2023-05-03T14:58:25;96750.88;;;13.28;62.65
10476;BME280;26166;48.264;11.436;2023-05-03T15:01:25;96747.88;;;13.31;62.92
10476;BME280;26166;48.264;11.436;2023-05-03T15:04:26;96756.59;;;13.32;62.61
10476;BME280;26166;48.264;11.436;2023-05-03T15:07:26;96755.78;;;13.31;61.87
10476;BME280;26166;48.264;11.436;2023-05-03T15:10:27;96749.50;;;13.32;62.23
10476;BME280;26166;48.264;11.436;2023-05-03T15:13:27;96753.81;;;13.33;62.73
10476;BME280;26166;48.264;11.436;2023-05-03T15:16:27;96752.34;;;13.31;62.10
10476;BME280;26166;48.264;11.436;2023-05-03T15:19:27;96749.06;;;13.29;62.13
10476;BME280;26166;48.264;11.436;2023-05-03T15:22:28;96763.22;;;13.28;62.37
10476;BME280;26166;48.264;11.436;2023-05-03T15:25:28;96760.44;;;13.29;62.44
10476;BME280;26166;48.264;11.436;2023-05-03T15:28:28;96754.34;;;13.29;62.12
10476;BME280;26166;48.264;11.436;2023-05-03T15:31:28;96763.72;;;13.31;61.85
10476;BME280;26166;48.264;11.436;2023-05-03T15:34:29;96760.75;;;13.34;62.04
10476;BME280;26166;48.264;11.436;2023-05-03T15:37:33;96759.72;;;13.35;61.80
10476;BME280;26166;48.264;11.436;2023-05-03T15:40:36;96759.91;;;13.34;62.04
10476;BME280;26166;48.264;11.436;2023-05-03T15:43:37;96759.09;;;13.33;62.13
10476;BME280;26166;48.264;11.436;2023-05-03T15:46:37;96751.53;;;13.30;61.88
10476;BME280;26166;48.264;11.436;2023-05-03T15:49:37;96754.34;;;13.29;62.23
10476;BME280;26166;48.264;11.436;2023-05-03T15:52:37;96750.69;;;13.30;62.08
10476;BME280;26166;48.264;11.436;2023-05-03T15:55:38;96740.97;;;13.30;62.25
10476;BME280;26166;48.264;11.436;2023-05-03T15:58:38;96740.31;;;13.28;62.06
10476;BME280;26166;48.264;11.436;2023-05-03T16:01:38;96750.22;;;13.26;61.56
10476;BME280;26166;48.264;11.436;2023-05-03T16:04:38;96747.88;;;13.31;61.61
10476;BME280;26166;48.264;11.436;2023-05-03T16:07:38;96745.91;;;13.33;61.46
10476;BME280;26166;48.264;11.436;2023-05-03T16:10:39;96747.53;;;13.34;61.60